Portada
METAR-TAF:

METAR-TAF

Aeropuertos :

Aeropuerto de Roberval

Roberval, Quebec, Canadá

latitud: 48-31N, longitud: 072-16W, altitud: 179 m

Observación

El informe se hizo hace 1 hora y 14 minutos, a las 09:00 UTC
Viento 10 kt del suroeste
Temperatura 2°C
Humedad 64%
Presión 1015 hPa
Visibilidad: 32.2 km
Cielo nuboso a una altura de 10000 ft

METAR: CYRJ 210900Z 22010KT 20SM BKN100 02/M04 A2997 RMK AS7 SLP158

Hora: 06:14 (10:14 UTC)

Pronóstico

El informe se hizo hace 14 horas y 29 minutos, a las 19:45 UTC
Pronóstico válido del 20 a las 20 UTC al 21 a las 02 UTC
Viento 12 kt del suroeste con ráfagas de 22 kt
Visibilidad: 10 km
Cielo nuboso a una altura de 3000 ft
Cielo nuboso a una altura de 7000 ft
Temporalmente
del 20 a las 22 UTC al 21 a las 02 UTC
Visibilidad: 10 km
chaparrones de lluvia

TAF: CYRJ 201945Z 2020/2102 22012G22KT P6SM BKN030 BKN070 TEMPO 2022/2102 P6SM -SHRA RMK NXT FCST WILL BE ISSUED AT 211145Z

Observaciones y pronósticos meteorológicos de más de 4000 aeropuertos (mensajes METAR y TAF).

Los puntos amarillos y rojos representan las estaciones disponibles.

Ponga el ratón en el punto deseado para ver el nombre de la estación.

Haga clic para ver las observaciones y los pronósticos meteorológicos.

Para cambiar el mapa : haga clic en los botones verdes con una cruz de color negro para hacer un zoom, en el botón verde con un guión para alejar o en las flechas verdes para mapas adyacentes.


METAR-TAF: